Time;durP1;ratioP1;P1;durP2;ratioP2;P2;SDS_P1;SDS_P2;PMS_P1;PMS_P2;Temp;Humidity;BMP_temperature;BMP_pressure;BME280_temperature;BME280_humidity;BME280_pressure;Samples;Min_cycle;Max_cycle;Signal;HPM_P1;HPM_P2
2022/06/24 00:01:28;;;;;;;;;;;;;;;20.69;45.98;100093.72;4977639;28;20464;-84
2022/06/24 00:03:56;;;;;;;7.53;3.15;;;;;;;20.61;46.64;100093.66;4976996;28;20343;-84
2022/06/24 00:06:42;;;;;;;5.25;3.22;;;;;;;20.49;47.40;100091.25;4976955;28;20053;-83
2022/06/24 00:09:14;;;;;;;5.45;2.78;;;;;;;20.55;46.96;100085.16;4976997;28;20055;-78
2022/06/24 00:11:43;;;;;;;7.10;3.07;;;;;;;20.52;47.38;100099.03;4975705;28;20043;-77
2022/06/24 00:14:13;;;;;;;6.97;3.40;;;;;;;20.45;47.54;100087.13;4976933;28;20289;-77
2022/06/24 00:16:54;;;;;;;4.60;2.95;;;;;;;20.37;48.13;100081.66;4976994;28;20043;-76
2022/06/24 00:19:24;;;;;;;6.88;3.10;;;;;;;20.37;48.29;100088.94;4976587;28;20063;-76
2022/06/24 00:22:03;;;;;;;6.25;3.10;;;;;;;20.26;49.43;100098.13;4976499;28;20042;-76
2022/06/24 00:24:34;;;;;;;5.72;3.10;;;;;;;20.21;49.19;100097.78;4976763;28;20130;-77
2022/06/24 00:27:04;;;;;;;7.72;3.13;;;;;;;19.97;50.27;100101.97;4976353;28;20046;-77
2022/06/24 00:29:33;;;;;;;9.38;3.72;;;;;;;19.90;50.41;100094.66;4976144;28;20133;-77
2022/06/24 00:32:07;;;;;;;12.18;3.35;;;;;;;19.85;50.10;100100.53;4976529;28;20523;-77
2022/06/24 00:34:37;;;;;;;4.80;3.13;;;;;;;19.92;49.49;100103.47;4976914;28;20058;-77
2022/06/24 00:37:25;;;;;;;6.38;3.13;;;;;;;19.74;50.72;100100.75;4976285;28;20050;-77
2022/06/24 00:39:57;;;;;;;8.05;3.40;;;;;;;19.57;51.80;100101.59;4976050;28;20042;-77
2022/06/24 00:42:25;;;;;;;7.85;3.25;;;;;;;19.60;51.58;100093.19;4976839;28;20039;-77
2022/06/24 00:45:06;;;;;;;6.60;3.20;;;;;;;19.50;52.67;100103.22;4976215;28;20440;-77
2022/06/24 00:47:37;;;;;;;5.45;3.10;;;;;;;19.54;52.95;100100.03;4976363;28;20043;-78
2022/06/24 00:50:17;;;;;;;6.90;3.17;;;;;;;19.50;52.40;100095.94;4975941;28;20043;-77
2022/06/24 00:52:47;;;;;;;7.32;3.08;;;;;;;19.41;52.69;100097.72;4976248;28;20051;-77
2022/06/24 00:55:21;;;;;;;8.57;3.65;;;;;;;19.27;53.74;100100.06;4976127;28;20047;-78
2022/06/24 00:57:49;;;;;;;8.18;3.22;;;;;;;19.34;53.48;100098.47;4976028;28;20050;-78
2022/06/24 01:00:18;;;;;;;7.25;3.22;;;;;;;19.44;53.13;100097.41;4976211;28;20047;-78
2022/06/24 01:02:48;;;;;;;6.65;3.20;;;;;;;19.54;52.96;100085.66;4975933;28;20046;-77
2022/06/24 01:05:18;;;;;;;11.52;2.97;;;;;;;19.50;52.85;100089.69;4975991;28;20047;-77
2022/06/24 01:07:47;;;;;;;7.40;2.80;;;;;;;19.43;53.47;100081.31;4975774;28;20125;-78
2022/06/24 01:10:15;;;;;;;8.05;3.08;;;;;;;19.32;54.31;100100.47;4976095;28;20444;-78
2022/06/24 01:12:45;;;;;;;7.50;3.50;;;;;;;19.37;54.11;100090.88;4975500;28;20038;-77
2022/06/24 01:15:13;;;;;;;7.07;3.17;;;;;;;19.35;54.81;100090.19;4975660;28;20411;-77
2022/06/24 01:17:42;;;;;;;5.78;3.13;;;;;;;19.28;54.85;100085.53;4975501;28;20469;-79
2022/06/24 01:20:12;;;;;;;4.97;2.80;;;;;;;19.42;53.82;100085.03;4975515;28;20050;-77
2022/06/24 01:22:41;;;;;;;5.68;3.00;;;;;;;19.29;53.89;100088.09;4975325;28;20544;-78
2022/06/24 01:25:11;;;;;;;6.43;3.10;;;;;;;19.36;53.90;100091.03;4975519;28;20073;-79
2022/06/24 01:27:40;;;;;;;7.38;3.20;;;;;;;19.28;54.18;100086.38;4975677;28;20499;-79
2022/06/24 01:30:11;;;;;;;8.20;2.97;;;;;;;19.07;55.25;100093.91;4974849;28;20050;-78
2022/06/24 01:32:39;;;;;;;5.28;2.80;;;;;;;18.90;55.59;100086.59;4975371;28;20049;-78
2022/06/24 01:35:13;;;;;;;6.15;3.05;;;;;;;18.78;56.52;100089.50;4975452;28;20439;-77
2022/06/24 01:37:43;;;;;;;5.40;3.47;;;;;;;18.76;56.36;100085.25;4975327;28;20407;-78
2022/06/24 01:40:12;;;;;;;8.02;3.55;;;;;;;18.70;56.61;100081.28;4975172;28;20042;-80
2022/06/24 01:42:40;;;;;;;6.25;3.20;;;;;;;18.90;55.68;100081.19;4975155;28;20487;-77
2022/06/24 01:45:09;;;;;;;6.28;3.33;;;;;;;18.75;56.40;100078.16;4975053;28;20131;-76
2022/06/24 01:47:37;;;;;;;7.50;3.30;;;;;;;18.69;56.59;100079.59;4974857;28;20079;-78
2022/06/24 01:50:07;;;;;;;5.88;3.50;;;;;;;18.73;56.73;100081.00;4974828;28;20046;-79
2022/06/24 01:52:35;;;;;;;5.55;3.00;;;;;;;18.72;57.23;100079.31;4974825;28;20070;-78
2022/06/24 01:55:06;;;;;;;6.55;3.38;;;;;;;18.54;58.22;100081.06;4974668;28;20426;-78
2022/06/24 01:57:34;;;;;;;8.00;3.60;;;;;;;18.44;58.75;100081.09;4975204;28;20471;-78
2022/06/24 02:00:04;;;;;;;6.22;3.13;;;;;;;18.33;59.72;100075.81;4974659;28;20046;-78
2022/06/24 02:02:33;;;;;;;7.10;3.08;;;;;;;18.37;59.68;100081.81;4974931;28;20074;-78
2022/06/24 02:05:03;;;;;;;7.30;3.20;;;;;;;18.27;60.14;100079.13;4974611;28;20113;-78
2022/06/24 02:07:31;;;;;;;6.80;2.92;;;;;;;18.34;59.60;100072.16;4974629;28;20467;-78
2022/06/24 02:15:31;;;;;;;5.57;2.78;;;;;;;18.36;59.59;100072.00;4974627;28;20051;-78
2022/06/24 02:17:59;;;;;;;4.50;2.90;;;;;;;18.49;58.90;100073.38;4974165;28;20042;-78
2022/06/24 02:20:28;;;;;;;5.32;3.00;;;;;;;18.45;59.34;100071.13;4974590;28;20452;-76
2022/06/24 02:22:56;;;;;;;4.65;2.80;;;;;;;18.55;58.57;100066.53;4974475;28;20073;-77
2022/06/24 02:25:24;;;;;;;7.60;3.00;;;;;;;18.57;58.33;100068.09;4974495;28;20082;-78
2022/06/24 02:27:53;;;;;;;5.40;2.72;;;;;;;18.42;59.41;100061.44;4974353;28;20085;-79
2022/06/24 02:30:22;;;;;;;7.60;2.83;;;;;;;18.24;60.22;100074.88;4974051;28;20061;-78
2022/06/24 02:32:50;;;;;;;7.00;3.10;;;;;;;18.23;60.23;100073.16;4973859;28;20049;-78
2022/06/24 02:35:19;;;;;;;9.30;2.90;;;;;;;18.36;59.83;100077.41;4974291;28;20400;-79
2022/06/24 02:37:47;;;;;;;7.32;2.88;;;;;;;18.34;59.61;100069.47;4974281;28;20109;-78
2022/06/24 02:43:02;;;;;;;6.50;3.10;;;;;;;18.09;61.91;100070.06;4974024;28;20043;-79
2022/06/24 02:45:30;;;;;;;6.22;2.90;;;;;;;18.03;62.31;100072.34;4974224;28;20487;-79
2022/06/24 02:47:58;;;;;;;5.15;2.85;;;;;;;18.16;60.92;100072.06;4974272;28;20043;-79
2022/06/24 02:50:27;;;;;;;5.78;3.47;;;;;;;18.10;61.65;100078.03;4974315;28;20047;-81
2022/06/24 02:52:55;;;;;;;7.00;3.00;;;;;;;18.19;61.63;100071.75;4974064;28;20042;-80
2022/06/24 02:55:23;;;;;;;7.72;3.20;;;;;;;18.20;61.73;100073.44;4974148;28;20403;-80
2022/06/24 02:57:51;;;;;;;6.30;3.00;;;;;;;18.11;62.35;100071.63;4974255;28;20146;-80
2022/06/24 03:00:21;;;;;;;4.53;2.95;;;;;;;18.13;62.62;100077.72;4974325;28;20043;-81
2022/06/24 03:02:49;;;;;;;5.85;3.05;;;;;;;18.20;63.17;100075.31;4956956;28;20055;-80
2022/06/24 03:05:17;;;;;;;6.43;3.28;;;;;;;18.16;63.39;100074.75;4974013;28;20459;-79
2022/06/24 03:07:46;;;;;;;8.90;3.45;;;;;;;18.17;63.78;100072.91;4974255;28;20097;-79
2022/06/24 03:10:14;;;;;;;6.47;3.20;;;;;;;18.16;63.65;100077.44;4974031;28;20042;-79
2022/06/24 03:12:42;;;;;;;7.35;3.40;;;;;;;18.18;63.68;100085.41;4974166;28;20416;-77
2022/06/24 03:15:11;;;;;;;6.45;3.53;;;;;;;18.25;63.61;100076.59;4974004;28;20426;-82
2022/06/24 03:17:40;;;;;;;5.72;3.22;;;;;;;18.21;63.92;100077.84;4974010;28;20113;-83
2022/06/24 03:20:10;;;;;;;7.10;3.47;;;;;;;18.18;63.87;100080.84;4973790;28;20057;-78
2022/06/24 03:22:38;;;;;;;6.85;3.25;;;;;;;18.16;64.29;100080.16;4973842;28;20051;-75
2022/06/24 03:25:08;;;;;;;7.28;3.83;;;;;;;18.14;65.07;100076.72;4973859;28;20046;-75
2022/06/24 03:27:37;;;;;;;6.07;3.22;;;;;;;18.18;64.71;100080.84;4973967;28;20476;-76
2022/06/24 03:30:08;;;;;;;7.22;3.20;;;;;;;18.43;63.73;100079.38;4973675;28;20062;-75
2022/06/24 03:32:36;;;;;;;7.47;3.42;;;;;;;18.75;62.46;100079.00;4973827;28;20071;-75
2022/06/24 03:35:13;;;;;;;9.18;3.22;;;;;;;19.10;60.51;100088.19;4973745;28;20053;-75
2022/06/24 03:37:41;;;;;;;8.85;3.80;;;;;;;19.81;58.32;100087.47;4974013;28;20047;-76
2022/06/24 03:40:10;;;;;;;8.07;3.33;;;;;;;20.65;55.29;100081.50;4973697;28;20480;-76
2022/06/24 03:42:39;;;;;;;9.65;3.50;;;;;;;21.33;53.22;100081.50;4973672;28;20051;-74
2022/06/24 03:45:08;;;;;;;10.68;3.30;;;;;;;21.99;51.01;100085.97;4975366;28;20443;-74
2022/06/24 03:47:36;;;;;;;7.10;3.22;;;;;;;22.49;48.72;100076.78;4977198;28;20043;-74
2022/06/24 03:50:05;;;;;;;6.15;3.05;;;;;;;23.03;47.87;100085.13;4977125;28;20070;-79
2022/06/24 03:52:35;;;;;;;7.32;2.95;;;;;;;24.25;44.76;100078.88;4977403;28;20465;-76
2022/06/24 03:55:04;;;;;;;7.13;3.10;;;;;;;24.48;43.13;100082.41;4976917;28;20543;-74
2022/06/24 03:57:32;;;;;;;7.63;3.20;;;;;;;24.62;42.43;100088.09;4976970;28;20047;-74
2022/06/24 04:00:00;;;;;;;4.75;2.85;;;;;;;25.09;41.33;100080.41;4976541;28;20043;-75
2022/06/24 04:02:29;;;;;;;6.60;3.10;;;;;;;25.27;40.87;100085.44;4977161;28;20070;-74
2022/06/24 04:04:57;;;;;;;6.25;2.80;;;;;;;25.31;40.92;100091.38;4976634;28;20125;-75
2022/06/24 04:07:25;;;;;;;5.93;3.20;;;;;;;25.39;40.45;100096.72;4959627;28;20451;-75
2022/06/24 04:09:55;;;;;;;6.10;3.10;;;;;;;25.59;39.64;100100.53;4976587;28;20461;-81
2022/06/24 04:12:23;;;;;;;6.25;3.05;;;;;;;25.66;38.85;100089.66;4976637;28;20046;-80
2022/06/24 04:17:37;;;;;;;10.25;3.38;;;;;;;26.31;37.88;100094.06;4976927;28;20050;-81
2022/06/24 04:20:06;;;;;;;5.88;2.88;;;;;;;26.81;36.03;100087.50;4976300;28;20074;-80
2022/06/24 04:22:36;;;;;;;5.80;2.90;;;;;;;26.89;36.69;100091.97;4976543;28;20535;-80
2022/06/24 04:25:07;;;;;;;5.05;2.70;;;;;;;27.00;36.26;100093.28;4958992;28;20058;-80
2022/06/24 04:27:35;;;;;;;7.00;3.10;;;;;;;27.77;34.73;100095.75;4976843;28;20050;-79
2022/06/24 04:30:05;;;;;;;7.80;2.78;;;;;;;28.39;33.81;100101.97;4976128;28;20114;-79
2022/06/24 04:32:34;;;;;;;6.95;2.60;;;;;;;28.44;33.76;100094.75;4976699;28;20126;-79
2022/06/24 04:35:04;;;;;;;6.45;2.83;;;;;;;27.22;34.94;100092.19;4976481;28;20534;-81
2022/06/24 04:37:35;;;;;;;4.97;2.58;;;;;;;28.03;33.84;100094.09;4958859;28;20090;-81
2022/06/24 04:40:07;;;;;;;8.90;2.90;;;;;;;27.90;33.45;100098.53;4976297;28;20415;-81
2022/06/24 04:42:35;;;;;;;5.88;2.72;;;;;;;28.16;33.30;100096.84;4976614;28;20050;-82
2022/06/24 04:45:04;;;;;;;4.75;2.60;;;;;;;28.49;32.60;100100.47;4958688;28;20051;-79
2022/06/24 04:47:33;;;;;;;4.65;2.40;;;;;;;28.68;31.98;100097.91;4976021;28;20070;-76
2022/06/24 04:50:01;;;;;;;6.90;2.80;;;;;;;28.59;32.08;100101.94;4975669;28;20042;-78
2022/06/24 04:52:30;;;;;;;6.07;2.75;;;;;;;28.72;32.29;100099.16;4977098;28;20054;-80
2022/06/24 04:54:59;;;;;;;6.50;2.70;;;;;;;29.04;31.06;100103.75;4975585;28;20050;-76
2022/06/24 04:57:29;;;;;;;5.10;2.47;;;;;;;28.62;32.34;100104.25;4974994;28;20130;-78
2022/06/24 04:59:57;;;;;;;6.78;2.60;;;;;;;29.67;30.52;100099.50;4975505;28;20051;-78
2022/06/24 05:02:25;;;;;;;5.60;2.45;;;;;;;29.13;31.42;100092.53;4963005;28;20051;-79
2022/06/24 05:04:53;;;;;;;3.97;2.70;;;;;;;30.05;29.63;100088.47;4956625;29;20054;-73
2022/06/24 05:07:22;;;;;;;6.15;2.70;;;;;;;29.80;30.61;100092.00;4956590;29;20127;-73
2022/06/24 05:09:50;;;;;;;4.20;2.50;;;;;;;30.06;29.82;100096.47;4956490;29;20049;-78
2022/06/24 05:12:18;;;;;;;4.70;2.45;;;;;;;30.32;29.35;100095.47;4956000;29;20155;-78
2022/06/24 05:14:48;;;;;;;6.63;2.72;;;;;;;31.16;28.27;100093.97;4956068;29;20400;-78
2022/06/24 05:17:22;;;;;;;5.53;2.42;;;;;;;31.73;27.36;100091.75;4956176;29;20481;-78
2022/06/24 05:19:51;;;;;;;5.40;2.50;;;;;;;31.20;27.44;100098.00;4956156;29;20086;-78
2022/06/24 05:22:19;;;;;;;4.35;2.58;;;;;;;31.35;28.24;100094.81;4955874;29;20051;-80
2022/06/24 05:24:47;;;;;;;4.10;2.30;;;;;;;31.16;28.05;100101.41;4956129;29;20047;-79
2022/06/24 05:27:15;;;;;;;3.40;2.20;;;;;;;31.47;27.20;100097.66;4957651;28;20043;-80
2022/06/24 05:29:44;;;;;;;6.35;2.22;;;;;;;31.69;27.39;100106.25;4974599;28;20051;-80
2022/06/24 05:32:13;;;;;;;5.85;2.50;;;;;;;31.70;27.17;100099.66;4975149;28;20058;-80
2022/06/24 05:34:41;;;;;;;4.22;2.47;;;;;;;31.80;27.11;100102.72;4975458;28;20046;-80
2022/06/24 05:37:09;;;;;;;5.15;2.33;;;;;;;31.23;27.65;100097.53;4975132;28;20050;-80
2022/06/24 05:39:37;;;;;;;5.28;2.60;;;;;;;30.82;27.58;100100.94;4975412;28;20069;-79
2022/06/24 05:42:06;;;;;;;4.10;2.42;;;;;;;32.08;26.17;100105.69;4974690;28;20039;-80
2022/06/24 05:44:34;;;;;;;4.93;2.20;;;;;;;31.71;26.47;100110.44;4975222;28;20471;-80
2022/06/24 05:47:02;;;;;;;5.32;2.20;;;;;;;31.52;26.01;100112.41;4974992;28;20042;-76
2022/06/24 05:49:32;;;;;;;4.80;2.38;;;;;;;31.89;25.82;100124.22;4974557;28;20049;-80
2022/06/24 05:52:00;;;;;;;3.42;2.10;;;;;;;32.28;25.28;100127.44;4971616;28;20492;-80
2022/06/24 05:57:14;;;;;;;5.40;2.22;;;;;;;33.33;23.95;100117.50;4973547;28;20045;-80
2022/06/24 05:59:42;;;;;;;4.13;2.30;;;;;;;33.67;23.87;100121.22;4972229;28;20464;-80
2022/06/24 06:02:10;;;;;;;7.60;2.30;;;;;;;34.03;22.81;100117.25;4974360;28;20038;-78
2022/06/24 06:04:40;;;;;;;5.47;2.67;;;;;;;33.56;23.69;100120.19;4974647;28;20070;-77
2022/06/24 06:07:08;;;;;;;4.40;2.20;;;;;;;33.89;23.43;100116.72;4973644;28;20050;-73
2022/06/24 06:09:37;;;;;;;6.40;2.50;;;;;;;33.43;23.26;100107.50;4973255;28;20049;-74
2022/06/24 06:12:06;;;;;;;7.20;2.70;;;;;;;33.90;23.56;100107.34;4974161;28;20488;-74
2022/06/24 06:14:34;;;;;;;6.57;2.58;;;;;;;34.19;23.06;100118.38;4971898;28;20043;-74
2022/06/24 06:17:02;;;;;;;6.78;2.03;;;;;;;34.56;22.00;100114.03;4973843;28;20431;-74
2022/06/24 06:19:33;;;;;;;5.90;2.15;;;;;;;34.50;22.22;100116.97;4973979;28;20049;-74
2022/06/24 06:22:04;;;;;;;3.83;2.20;;;;;;;33.97;23.93;100118.22;4973922;28;20134;-77
2022/06/24 06:24:32;;;;;;;5.88;2.30;;;;;;;34.42;22.51;100121.00;4974721;28;20414;-82
2022/06/24 06:27:00;;;;;;;3.95;2.22;;;;;;;34.17;22.95;100117.78;4974803;28;20061;-83
2022/06/24 06:29:29;;;;;;;6.25;2.70;;;;;;;33.88;23.19;100115.06;4956785;28;20078;-83
2022/06/24 06:31:57;;;;;;;4.18;1.98;;;;;;;34.14;22.17;100114.41;4974666;28;20058;-83
2022/06/24 06:34:25;;;;;;;6.18;1.95;;;;;;;33.76;22.69;100111.44;4974382;28;20045;-80
2022/06/24 06:36:53;;;;;;;4.35;2.00;;;;;;;33.52;22.64;100106.03;4977269;28;20093;-80
2022/06/24 06:39:23;;;;;;;4.07;2.30;;;;;;;32.09;24.37;100117.56;4974034;28;20050;-82
2022/06/24 06:41:51;;;;;;;5.13;2.20;;;;;;;32.98;24.01;100105.41;4974231;28;20064;-79
2022/06/24 06:44:19;;;;;;;6.25;2.40;;;;;;;33.83;22.97;100109.38;4974312;28;20050;-79
2022/06/24 06:46:47;;;;;;;4.00;2.22;;;;;;;34.44;21.91;100102.19;4974201;28;20081;-78
2022/06/24 06:49:16;;;;;;;4.10;2.00;;;;;;;34.61;22.02;100105.78;4974073;28;20122;-77
2022/06/24 06:51:44;;;;;;;7.10;2.30;;;;;;;34.40;22.15;100101.03;4974325;28;20062;-76
2022/06/24 06:54:12;;;;;;;5.28;2.13;;;;;;;34.13;22.51;100104.44;4956625;28;20071;-76
2022/06/24 06:56:42;;;;;;;4.20;2.10;;;;;;;33.48;23.30;100102.06;4974035;28;20395;-76
2022/06/24 06:59:11;;;;;;;5.28;2.30;;;;;;;33.55;24.17;100101.94;4974062;28;20177;-75
2022/06/24 07:01:39;;;;;;;4.43;2.60;;;;;;;33.16;23.58;100100.81;4973928;28;20097;-78
2022/06/24 07:04:07;;;;;;;5.70;2.28;;;;;;;32.68;25.16;100096.41;4974082;28;20046;-75
2022/06/24 07:06:35;;;;;;;5.88;2.47;;;;;;;31.72;25.38;100095.59;4974007;28;20053;-76
2022/06/24 07:09:04;;;;;;;4.55;2.10;;;;;;;30.42;26.43;100090.28;4973824;28;20039;-78
2022/06/24 07:11:33;;;;;;;4.80;2.55;;;;;;;30.27;27.10;100092.53;4956520;28;20051;-76
2022/06/24 07:14:03;;;;;;;4.15;2.35;;;;;;;30.72;27.13;100089.63;4957048;28;20051;-75
2022/06/24 07:16:31;;;;;;;4.20;2.33;;;;;;;30.88;27.22;100097.25;4974349;28;20463;-76
2022/06/24 07:18:59;;;;;;;7.60;2.33;;;;;;;30.62;26.81;100086.50;4973775;28;20484;-77
2022/06/24 07:21:28;;;;;;;4.65;2.40;;;;;;;30.32;27.10;100084.47;4977785;28;20043;-82
2022/06/24 07:23:56;;;;;;;4.38;2.30;;;;;;;30.01;27.56;100082.53;4977501;28;20401;-77
2022/06/24 07:26:24;;;;;;;6.10;2.42;;;;;;;30.04;28.09;100090.38;4964011;28;20043;-77
2022/06/24 07:28:52;;;;;;;4.57;2.40;;;;;;;30.20;28.23;100080.72;4958179;29;20043;-75
2022/06/24 07:31:22;;;;;;;3.78;2.00;;;;;;;29.80;27.35;100077.41;4940700;29;20086;-75
2022/06/24 07:33:50;;;;;;;5.22;2.33;;;;;;;29.42;27.83;100072.75;4958342;29;20122;-77
2022/06/24 07:36:18;;;;;;;4.47;2.33;;;;;;;29.32;27.96;100078.72;4958194;29;20036;-77
2022/06/24 07:38:46;;;;;;;3.65;2.13;;;;;;;29.18;28.58;100070.75;4958061;29;20071;-77
2022/06/24 07:41:15;;;;;;;6.80;2.03;;;;;;;28.67;28.83;100075.13;4957797;29;20051;-77
2022/06/24 07:43:43;;;;;;;6.63;3.50;;;;;;;28.83;28.53;100076.53;4957962;29;20444;-77
2022/06/24 07:46:11;;;;;;;18.92;9.68;;;;;;;28.60;28.18;100066.06;4957685;29;20045;-77
2022/06/24 07:48:41;;;;;;;4.53;2.28;;;;;;;28.65;28.21;100062.66;4957823;29;20043;-77
2022/06/24 07:51:11;;;;;;;4.32;2.08;;;;;;;28.81;28.60;100070.44;4940567;29;20051;-78
2022/06/24 07:53:40;;;;;;;5.38;2.20;;;;;;;28.74;28.06;100061.38;4958066;29;20043;-76
2022/06/24 07:59:00;;;;;;;5.40;2.45;;;;;;;28.59;28.48;100060.78;4957714;29;20043;-77
2022/06/24 08:01:29;;;;;;;6.18;2.13;;;;;;;28.34;29.27;100066.91;4957362;29;20464;-77
2022/06/24 08:03:58;;;;;;;6.05;2.60;;;;;;;28.50;28.49;100062.91;4940445;29;20461;-77
2022/06/24 08:06:26;;;;;;;5.28;2.30;;;;;;;28.74;28.65;100058.63;4957564;29;20043;-77
2022/06/24 08:08:55;;;;;;;6.28;2.40;;;;;;;28.95;28.05;100060.28;4957663;29;20129;-76
2022/06/24 08:11:23;;;;;;;4.55;2.28;;;;;;;28.90;27.40;100049.94;4956968;29;20500;-77
2022/06/24 08:13:51;;;;;;;5.32;1.95;;;;;;;28.98;27.55;100055.22;4957276;29;20477;-76
2022/06/24 08:16:19;;;;;;;4.00;2.03;;;;;;;28.99;28.20;100051.41;4957247;29;20566;-76
2022/06/24 08:18:47;;;;;;;4.45;2.45;;;;;;;28.98;28.14;100054.38;4940344;29;20130;-76
2022/06/24 08:21:17;;;;;;;4.53;2.33;;;;;;;29.11;27.52;100051.56;4957134;29;20058;-77
2022/06/24 08:23:45;;;;;;;4.38;1.92;;;;;;;29.10;28.48;100047.13;4957442;29;20099;-77
2022/06/24 08:26:14;;;;;;;4.78;2.38;;;;;;;29.18;27.87;100043.31;4957459;29;20047;-77
2022/06/24 08:28:43;;;;;;;4.70;2.20;;;;;;;29.15;27.59;100041.00;4939993;29;20047;-77
2022/06/24 08:31:11;;;;;;;4.88;2.13;;;;;;;29.11;27.26;100050.72;4956325;28;20214;-77
2022/06/24 08:33:39;;;;;;;5.93;2.20;;;;;;;28.79;27.93;100047.84;4956846;29;20071;-77
2022/06/24 08:36:07;;;;;;;6.13;2.50;;;;;;;28.75;28.22;100041.09;4957365;29;20047;-77
2022/06/24 08:38:37;;;;;;;4.93;2.10;;;;;;;28.82;27.47;100039.19;4939932;29;20515;-77
2022/06/24 08:41:05;;;;;;;4.90;2.45;;;;;;;28.94;28.05;100037.47;4956976;29;20137;-77
2022/06/24 08:43:36;;;;;;;5.15;2.10;;;;;;;28.88;27.01;100043.81;4939255;29;20053;-77
2022/06/24 08:46:05;;;;;;;6.47;2.17;;;;;;;28.97;27.52;100036.22;4957203;29;20043;-77
2022/06/24 08:48:38;;;;;;;4.13;2.05;;;;;;;28.83;27.84;100038.13;4956930;29;20047;-77
2022/06/24 08:51:07;;;;;;;4.80;2.13;;;;;;;28.69;27.44;100039.22;4939774;29;20059;-76
2022/06/24 08:53:38;;;;;;;4.18;2.28;;;;;;;28.85;27.45;100038.72;4956893;29;20452;-78
2022/06/24 08:56:07;;;;;;;5.00;2.33;;;;;;;28.95;27.32;100038.31;4957124;29;20122;-76
2022/06/24 08:58:36;;;;;;;4.93;2.20;;;;;;;29.01;27.58;100037.44;4956763;29;20047;-77
2022/06/24 09:01:15;;;;;;;4.60;2.55;;;;;;;29.05;27.49;100039.56;4956572;29;20065;-85
2022/06/24 09:03:45;;;;;;;4.65;2.20;;;;;;;28.97;27.11;100037.06;4939894;29;20055;-76
2022/06/24 09:06:14;;;;;;;4.30;2.30;;;;;;;29.05;27.45;100036.81;4956579;29;20053;-77
2022/06/24 09:08:49;;;;;;;4.53;2.28;;;;;;;28.98;27.08;100044.22;4939388;29;20110;-76
2022/06/24 09:11:17;;;;;;;5.53;2.13;;;;;;;29.12;27.23;100044.16;4956344;29;20047;-76
2022/06/24 09:13:48;;;;;;;3.72;1.90;;;;;;;28.81;27.95;100037.50;4956279;29;20047;-76
2022/06/24 09:16:18;;;;;;;4.03;2.17;;;;;;;29.10;27.59;100035.31;4956506;29;20047;-76
2022/06/24 09:18:54;;;;;;;4.47;2.25;;;;;;;29.01;27.30;100032.81;4956277;29;20126;-76
2022/06/24 09:21:24;;;;;;;5.43;2.10;;;;;;;28.90;28.09;100025.25;4956279;29;20039;-77
2022/06/24 09:23:55;;;;;;;3.88;2.10;;;;;;;28.73;28.42;100024.00;4939075;29;20079;-76
2022/06/24 09:26:32;;;;;;;5.05;2.28;;;;;;;29.05;28.08;100034.06;4956074;29;20488;-77
2022/06/24 09:29:01;;;;;;;5.95;2.20;;;;;;;29.22;27.47;100030.81;4955967;29;20039;-79
2022/06/24 09:31:31;;;;;;;3.20;2.20;;;;;;;29.49;26.83;100026.88;4938432;29;20086;-77
2022/06/24 09:34:08;;;;;;;4.50;2.20;;;;;;;29.71;26.17;100029.28;4956315;29;20047;-77
2022/06/24 09:36:38;;;;;;;6.28;2.10;;;;;;;29.76;27.13;100015.72;4938948;29;20063;-77
2022/06/24 09:39:09;;;;;;;3.85;2.03;;;;;;;29.85;26.40;100014.38;4955804;29;20051;-76
2022/06/24 09:41:46;;;;;;;4.60;2.30;;;;;;;29.74;26.35;100020.59;4955953;29;20071;-76
2022/06/24 09:44:16;;;;;;;3.42;2.00;;;;;;;29.62;26.78;100018.53;4955667;29;20071;-78
2022/06/24 09:46:44;;;;;;;5.80;2.08;;;;;;;29.82;26.54;100018.41;4955846;29;20051;-77
2022/06/24 09:49:15;;;;;;;6.15;2.80;;;;;;;29.78;26.42;100019.06;4955750;29;20074;-76
2022/06/24 09:51:45;;;;;;;4.38;2.00;;;;;;;29.72;26.97;100023.53;4955650;29;20051;-77
2022/06/24 09:54:15;;;;;;;5.63;2.20;;;;;;;29.83;26.80;100019.25;4955616;29;20071;-77
2022/06/24 09:56:45;;;;;;;3.92;1.95;;;;;;;29.76;26.89;100019.31;4938640;29;20058;-77
2022/06/24 10:02:04;;;;;;;4.03;2.20;;;;;;;29.81;26.64;100013.97;4955595;29;20054;-77
2022/06/24 10:04:33;;;;;;;4.72;2.20;;;;;;;29.98;26.26;100016.16;4955422;29;20125;-77
2022/06/24 10:07:03;;;;;;;3.67;1.98;;;;;;;29.96;26.45;100005.41;4955596;29;20050;-76
2022/06/24 10:09:37;;;;;;;5.25;1.95;;;;;;;29.74;26.35;99996.69;4955345;29;20399;-76
2022/06/24 10:12:06;;;;;;;3.60;1.92;;;;;;;29.81;26.80;100000.22;4955517;29;20385;-76
2022/06/24 10:14:34;;;;;;;3.95;2.00;;;;;;;29.52;26.08;100004.44;4955142;29;20047;-76
2022/06/24 10:17:03;;;;;;;4.13;2.20;;;;;;;29.22;27.25;100003.34;4955426;29;20043;-76
2022/06/24 10:19:33;;;;;;;4.95;2.03;;;;;;;29.55;26.62;99998.53;4955027;29;20400;-76
2022/06/24 10:22:01;;;;;;;5.15;2.17;;;;;;;29.58;26.33;99991.75;4955443;29;20400;-76
2022/06/24 10:24:42;;;;;;;4.85;2.03;;;;;;;29.44;26.74;99993.72;4954800;29;20047;-76
2022/06/24 10:27:10;;;;;;;4.35;2.10;;;;;;;29.20;27.31;99991.75;4955484;29;20077;-76
2022/06/24 10:29:39;;;;;;;3.65;2.40;;;;;;;29.31;27.01;99999.28;4954596;29;20488;-76
2022/06/24 10:32:08;;;;;;;7.45;2.42;;;;;;;29.40;27.19;99991.63;4955526;29;20067;-76
2022/06/24 10:34:45;;;;;;;3.88;1.85;;;;;;;29.27;27.24;99978.81;4938069;29;20055;-77
2022/06/24 10:37:28;;;;;;;4.47;2.25;;;;;;;29.51;27.13;99972.53;4955209;29;20126;-77
2022/06/24 10:40:01;;;;;;;4.80;2.30;;;;;;;29.57;26.26;99981.81;4955023;29;20047;-76
2022/06/24 10:42:31;;;;;;;4.72;2.30;;;;;;;29.66;26.65;99976.88;4937309;29;20074;-76
2022/06/24 10:45:08;;;;;;;5.63;2.08;;;;;;;29.67;26.12;99964.84;4955149;29;20039;-76
2022/06/24 10:47:43;;;;;;;6.75;2.05;;;;;;;29.76;25.95;99963.50;4954611;29;20146;-76
2022/06/24 10:50:20;;;;;;;4.35;2.00;;;;;;;29.88;26.30;99969.94;4955233;29;20059;-76
2022/06/24 10:53:02;;;;;;;3.38;2.10;;;;;;;30.02;25.98;99965.16;4937917;29;20063;-77
2022/06/24 10:55:38;;;;;;;5.15;2.20;;;;;;;30.04;25.77;99965.78;4957005;28;20555;-77
2022/06/24 10:58:13;;;;;;;4.40;2.00;;;;;;;29.72;26.09;99952.09;4958840;29;20071;-77
2022/06/24 11:00:51;;;;;;;4.10;2.42;;;;;;;29.82;26.42;99951.56;4958373;29;20047;-75
2022/06/24 11:03:32;;;;;;;3.38;2.03;;;;;;;29.88;26.15;99947.94;4941737;29;20055;-77
2022/06/24 11:06:01;;;;;;;5.13;2.00;;;;;;;29.48;26.33;99945.53;4958971;29;20043;-76
2022/06/24 11:08:29;;;;;;;4.30;2.25;;;;;;;29.23;26.81;99945.44;4958391;29;20070;-76
2022/06/24 11:10:59;;;;;;;4.55;2.00;;;;;;;29.50;26.90;99937.06;4958586;29;20066;-76
2022/06/24 11:13:27;;;;;;;3.53;2.08;;;;;;;29.64;26.67;99930.41;4958169;29;20051;-76
2022/06/24 11:15:58;;;;;;;3.75;1.77;;;;;;;29.98;26.21;99933.69;4958707;29;20373;-76
2022/06/24 11:18:28;;;;;;;4.65;2.00;;;;;;;30.01;26.00;99931.31;4958563;29;20477;-77
2022/06/24 11:20:59;;;;;;;4.93;2.10;;;;;;;30.07;25.88;99922.19;4958665;29;20102;-76
2022/06/24 11:23:29;;;;;;;4.78;2.05;;;;;;;30.25;26.18;99923.28;4958511;29;20054;-76
2022/06/24 11:26:01;;;;;;;3.70;2.03;;;;;;;30.28;25.63;99928.31;4958332;29;20130;-76
2022/06/24 11:28:30;;;;;;;4.30;2.20;;;;;;;30.37;25.79;99916.78;4941302;29;20058;-77
2022/06/24 11:31:15;;;;;;;5.22;2.47;;;;;;;30.42;26.23;99916.94;4958247;29;20051;-77
2022/06/24 11:33:43;;;;;;;4.85;1.92;;;;;;;30.28;25.58;99909.06;4958104;29;20090;-77
2022/06/24 11:36:14;;;;;;;7.22;2.63;;;;;;;30.22;25.84;99907.25;4958224;29;20135;-77
2022/06/24 11:38:50;;;;;;;4.45;2.10;;;;;;;30.29;25.62;99905.22;4957778;29;20043;-77
2022/06/24 11:41:27;;;;;;;5.82;2.17;;;;;;;30.14;26.01;99911.97;4958213;29;20048;-76
2022/06/24 11:44:15;;;;;;;3.72;2.13;;;;;;;30.18;26.30;99912.34;4957907;29;20102;-76
2022/06/24 11:46:50;;;;;;;5.57;2.20;;;;;;;30.44;25.32;99911.22;4958002;29;20059;-76
2022/06/24 11:49:21;;;;;;;5.22;1.85;;;;;;;30.67;25.08;99905.84;4958214;29;20048;-76
2022/06/24 11:51:50;;;;;;;4.70;2.20;;;;;;;30.53;25.34;99900.72;4941017;29;20051;-76
2022/06/24 11:54:19;;;;;;;4.45;2.10;;;;;;;30.58;25.77;99901.69;4957910;29;20043;-76
2022/06/24 11:56:49;;;;;;;4.53;2.30;;;;;;;30.69;25.58;99903.72;4957749;29;20051;-76
2022/06/24 11:59:20;;;;;;;4.80;2.42;;;;;;;30.72;25.42;99903.25;4957683;29;20403;-77